createdAt,value
2023-03-24T00:00:23.928Z,3.70
2023-03-24T00:01:27.253Z,3.88
2023-03-24T00:02:29.658Z,3.70
2023-03-24T00:03:33.614Z,3.80
2023-03-24T00:04:36.189Z,3.50
2023-03-24T00:05:40.543Z,3.50
2023-03-24T00:06:43.544Z,3.72
2023-03-24T00:07:47.076Z,3.58
2023-03-24T00:08:49.445Z,4.05
2023-03-24T00:09:52.892Z,3.55
2023-03-24T00:10:58.693Z,4.00
2023-03-24T00:12:02.035Z,3.95
2023-03-24T00:13:04.517Z,3.60
2023-03-24T00:14:12.028Z,3.78
2023-03-24T00:15:15.652Z,3.65
2023-03-24T00:16:19.481Z,4.05
2023-03-24T00:17:25.469Z,3.72
2023-03-24T00:18:30.420Z,3.30
2023-03-24T00:19:33.986Z,3.78
2023-03-24T00:20:37.300Z,4.10
2023-03-24T00:21:40.007Z,3.60
2023-03-24T00:22:43.537Z,4.22
2023-03-24T00:23:47.710Z,4.10
2023-03-24T00:24:51.062Z,4.13
2023-03-24T00:26:02.732Z,3.47
2023-03-24T00:27:06.054Z,3.88
2023-03-24T00:28:11.253Z,4.00
2023-03-24T00:29:14.572Z,3.85
2023-03-24T00:30:17.569Z,4.10
2023-03-24T00:31:20.879Z,3.78
2023-03-24T00:32:23.214Z,4.05
2023-03-24T00:33:26.517Z,4.13
2023-03-24T00:34:28.828Z,4.07
2023-03-24T00:35:32.389Z,3.95
2023-03-24T00:36:35.271Z,3.70
2023-03-24T00:37:39.359Z,4.30
2023-03-24T00:38:42.380Z,4.05
2023-03-24T00:39:45.965Z,4.13
2023-03-24T00:40:48.757Z,4.43
2023-03-24T00:41:53.453Z,3.85
2023-03-24T00:42:55.764Z,4.00
2023-03-24T00:43:59.677Z,3.90
2023-03-24T00:45:03.810Z,3.70
2023-03-24T00:46:08.678Z,3.35
2023-03-24T00:47:11.232Z,3.50
2023-03-24T00:48:14.645Z,3.72
2023-03-24T00:49:17.159Z,3.30
2023-03-24T00:50:27.170Z,4.03
2023-03-24T00:51:31.903Z,4.47
2023-03-24T00:52:35.190Z,3.92
2023-03-24T00:53:37.906Z,4.18
2023-03-24T00:54:41.526Z,3.53
2023-03-24T00:55:46.094Z,3.63
2023-03-24T00:56:49.902Z,4.35
2023-03-24T00:57:54.496Z,4.80
2023-03-24T00:58:58.047Z,4.80
2023-03-24T01:00:07.821Z,5.35
2023-03-24T01:01:11.238Z,6.47
2023-03-24T01:02:13.596Z,7.80
2023-03-24T01:03:17.541Z,8.25
2023-03-24T01:04:20.842Z,12.60
2023-03-24T01:05:24.610Z,16.13
2023-03-24T01:06:26.959Z,15.80
2023-03-24T01:07:31.110Z,18.23
2023-03-24T01:08:33.460Z,13.80
2023-03-24T01:09:37.256Z,11.70
2023-03-24T01:10:53.068Z,14.75
2023-03-24T01:11:56.396Z,16.80
2023-03-24T01:13:01.049Z,17.52
2023-03-24T01:14:04.938Z,12.40
2023-03-24T01:15:08.961Z,13.05
2023-03-24T01:16:12.328Z,9.85
2023-03-24T01:17:14.641Z,10.60
2023-03-24T01:18:18.004Z,9.27
2023-03-24T01:19:20.372Z,12.00
2023-03-24T01:20:24.366Z,10.93
2023-03-24T01:21:26.757Z,13.25
2023-03-24T01:22:31.095Z,11.48
2023-03-24T01:23:34.552Z,10.90
2023-03-24T01:24:38.022Z,7.82
2023-03-24T01:25:42.490Z,8.80
2023-03-24T01:26:46.211Z,13.20
2023-03-24T01:27:49.252Z,11.00
2023-03-24T01:28:53.894Z,11.25
2023-03-24T01:29:59.120Z,12.63
2023-03-24T01:31:02.742Z,11.85
2023-03-24T01:32:05.086Z,10.55
2023-03-24T01:33:08.714Z,10.25
2023-03-24T01:34:11.027Z,8.65
2023-03-24T01:35:14.630Z,8.88
2023-03-24T01:36:16.973Z,8.63
2023-03-24T01:37:20.303Z,9.18
2023-03-24T01:38:22.612Z,7.68
2023-03-24T01:39:25.908Z,6.75
2023-03-24T01:40:29.597Z,7.63
2023-03-24T01:41:34.616Z,8.63
2023-03-24T01:42:37.284Z,8.15
2023-03-24T01:43:40.593Z,7.57
2023-03-24T01:44:44.244Z,7.30
2023-03-24T01:46:00.172Z,7.40
2023-03-24T01:47:04.496Z,10.13
2023-03-24T01:48:07.649Z,8.70
2023-03-24T01:49:11.163Z,9.95
2023-03-24T01:50:14.556Z,8.77
2023-03-24T01:51:19.206Z,8.45
2023-03-24T01:52:24.925Z,6.88
2023-03-24T01:53:29.034Z,8.20
2023-03-24T01:54:33.445Z,10.13
2023-03-24T01:55:35.883Z,9.65
2023-03-24T01:56:50.865Z,8.43
2023-03-24T01:57:54.965Z,7.30
2023-03-24T01:58:59.921Z,8.82
2023-03-24T02:00:07.730Z,9.43
2023-03-24T02:01:11.087Z,11.13
2023-03-24T02:02:14.672Z,10.15
2023-03-24T02:03:19.358Z,9.68
2023-03-24T02:04:23.080Z,10.20
2023-03-24T02:05:27.848Z,8.27
2023-03-24T02:06:32.247Z,8.05
2023-03-24T02:07:37.913Z,8.63
2023-03-24T02:08:42.381Z,8.55
2023-03-24T02:09:45.761Z,9.38
2023-03-24T02:10:48.537Z,10.18
2023-03-24T02:11:51.828Z,9.07
2023-03-24T02:12:54.165Z,9.63
2023-03-24T02:13:57.466Z,8.00
2023-03-24T02:15:00.290Z,10.02
2023-03-24T02:16:15.699Z,10.80
2023-03-24T02:17:27.293Z,9.20
2023-03-24T02:18:35.488Z,9.57
2023-03-24T02:20:11.794Z,10.02
2023-03-24T02:21:33.637Z,8.32
2023-03-24T02:22:42.951Z,7.90
2023-03-24T02:24:01.178Z,9.02
2023-03-24T02:25:20.256Z,8.45
2023-03-24T02:26:31.906Z,8.02
2023-03-24T02:27:51.790Z,8.95
2023-03-24T02:28:59.993Z,8.68
2023-03-24T02:30:24.271Z,9.63
2023-03-24T02:31:45.711Z,9.30
2023-03-24T02:33:07.149Z,8.73
2023-03-24T02:34:25.424Z,9.40
2023-03-24T02:35:45.707Z,8.45
2023-03-24T02:37:09.805Z,9.25
2023-03-24T02:38:24.463Z,8.70
2023-03-24T02:39:47.328Z,9.82
2023-03-24T02:40:51.825Z,8.85
2023-03-24T02:41:58.240Z,9.35
2023-03-24T02:43:04.023Z,9.80
2023-03-24T02:44:09.358Z,10.57
2023-03-24T02:45:16.825Z,11.55
2023-03-24T02:46:24.829Z,11.68
2023-03-24T02:47:31.557Z,10.60
2023-03-24T02:48:38.308Z,9.90
2023-03-24T02:49:44.471Z,10.27
2023-03-24T02:50:51.936Z,11.00
2023-03-24T02:51:59.746Z,8.98
2023-03-24T02:53:07.013Z,11.32
2023-03-24T02:54:12.527Z,13.35
2023-03-24T02:55:19.102Z,13.77
2023-03-24T02:56:23.506Z,11.73
2023-03-24T02:57:31.265Z,12.13
2023-03-24T02:58:38.553Z,13.98
2023-03-24T02:59:42.764Z,15.23
2023-03-24T03:00:48.724Z,16.95
2023-03-24T03:01:54.527Z,13.50
2023-03-24T03:02:59.185Z,12.00
2023-03-24T03:04:03.825Z,12.02
2023-03-24T03:05:09.108Z,12.52
2023-03-24T03:06:14.696Z,11.77
2023-03-24T03:07:21.889Z,12.90
2023-03-24T03:08:25.540Z,12.40
2023-03-24T03:09:29.756Z,11.63
2023-03-24T03:10:35.126Z,11.43
2023-03-24T03:11:39.959Z,11.30
2023-03-24T03:12:43.608Z,11.13
2023-03-24T03:13:51.086Z,11.25
2023-03-24T03:14:55.279Z,9.77
2023-03-24T03:16:00.123Z,10.45
2023-03-24T03:17:05.027Z,10.80
2023-03-24T03:18:11.330Z,10.07
2023-03-24T03:19:18.135Z,10.50
2023-03-24T03:20:23.350Z,9.80
2023-03-24T03:21:26.459Z,10.25
2023-03-24T03:22:33.199Z,12.20
2023-03-24T03:23:36.876Z,10.13
2023-03-24T03:24:41.987Z,8.80
2023-03-24T03:25:50.419Z,9.32
2023-03-24T03:26:57.506Z,9.10
2023-03-24T03:28:01.464Z,9.55
2023-03-24T03:29:07.492Z,9.05
2023-03-24T03:30:13.600Z,8.82
2023-03-24T03:31:18.725Z,8.40
2023-03-24T03:32:24.799Z,7.75
2023-03-24T03:33:33.122Z,7.93
2023-03-24T03:34:38.288Z,8.02
2023-03-24T03:35:43.885Z,8.10
2023-03-24T03:36:48.915Z,8.80
2023-03-24T03:37:54.819Z,8.30
2023-03-24T03:39:02.084Z,8.90
2023-03-24T03:40:08.275Z,8.23
2023-03-24T03:41:12.133Z,8.30
2023-03-24T03:42:15.737Z,9.27
2023-03-24T03:43:18.153Z,9.13
2023-03-24T03:44:21.493Z,9.57
2023-03-24T03:45:23.822Z,8.70
2023-03-24T03:46:27.210Z,8.88
2023-03-24T03:47:31.131Z,9.45
2023-03-24T03:48:34.560Z,9.57
2023-03-24T03:49:38.472Z,9.68
2023-03-24T03:50:40.833Z,9.20
2023-03-24T03:51:44.242Z,10.00
2023-03-24T03:52:46.668Z,9.85
2023-03-24T03:53:52.107Z,10.07
2023-03-24T03:54:55.911Z,10.48
2023-03-24T03:55:59.202Z,9.77
2023-03-24T03:57:03.145Z,10.30
2023-03-24T03:58:06.564Z,10.65
2023-03-24T03:59:09.253Z,10.80
2023-03-24T04:00:16.396Z,11.23
2023-03-24T04:01:20.734Z,11.73
2023-03-24T04:02:32.397Z,11.70
2023-03-24T04:03:41.565Z,11.27
2023-03-24T04:05:06.266Z,11.55
2023-03-24T04:06:13.948Z,11.10
2023-03-24T04:07:24.204Z,11.98
2023-03-24T04:08:29.538Z,11.25
2023-03-24T04:09:42.039Z,12.48
2023-03-24T04:11:03.883Z,12.13
2023-03-24T04:12:23.703Z,11.50
2023-03-24T04:13:32.214Z,11.40
2023-03-24T04:14:59.825Z,12.30
2023-03-24T04:16:09.969Z,11.20
2023-03-24T04:17:24.556Z,11.77
2023-03-24T04:18:38.776Z,10.82
2023-03-24T04:19:56.016Z,11.27
2023-03-24T04:21:08.869Z,11.38
2023-03-24T04:22:25.284Z,11.73
2023-03-24T04:23:33.006Z,11.60
2023-03-24T04:24:45.549Z,11.57
2023-03-24T04:25:58.593Z,11.00
2023-03-24T04:27:09.349Z,11.98
2023-03-24T04:28:17.298Z,10.48
2023-03-24T04:29:23.647Z,11.93
2023-03-24T04:30:30.352Z,11.80
2023-03-24T04:31:35.057Z,10.38
2023-03-24T04:32:43.237Z,11.27
2023-03-24T04:33:48.867Z,10.55
2023-03-24T04:34:55.853Z,11.73
2023-03-24T04:36:06.434Z,11.20
2023-03-24T04:37:12.598Z,9.75
2023-03-24T04:38:18.214Z,10.85
2023-03-24T04:39:28.310Z,10.82
2023-03-24T04:40:33.818Z,10.75
2023-03-24T04:41:37.803Z,11.07
2023-03-24T04:42:45.319Z,10.10
2023-03-24T04:43:49.461Z,10.15
2023-03-24T04:44:52.776Z,10.55
2023-03-24T04:45:57.702Z,9.80
2023-03-24T04:47:03.946Z,10.63
2023-03-24T04:48:08.666Z,10.70
2023-03-24T04:49:12.255Z,9.95
2023-03-24T04:50:14.774Z,11.07
2023-03-24T04:51:19.292Z,9.63
2023-03-24T04:52:21.359Z,10.40
2023-03-24T04:53:24.992Z,9.80
2023-03-24T04:54:28.139Z,10.45
2023-03-24T04:55:56.305Z,9.35
2023-03-24T04:57:00.213Z,9.45
2023-03-24T04:58:03.230Z,9.65
2023-03-24T04:59:07.396Z,10.35
2023-03-24T05:00:13.017Z,9.60
2023-03-24T05:01:17.134Z,10.32
2023-03-24T05:02:21.777Z,9.32
2023-03-24T05:03:24.094Z,10.38
2023-03-24T05:04:29.754Z,10.40
2023-03-24T05:05:31.772Z,10.15
2023-03-24T05:06:34.749Z,10.00
2023-03-24T05:07:36.734Z,11.00
2023-03-24T05:08:39.904Z,10.00
2023-03-24T05:09:41.908Z,9.98
2023-03-24T05:10:45.582Z,9.73
2023-03-24T05:11:47.872Z,10.38
2023-03-24T05:12:51.054Z,10.05
2023-03-24T05:13:53.568Z,9.88
2023-03-24T05:14:57.913Z,10.70
2023-03-24T05:15:59.907Z,9.45
2023-03-24T05:17:02.984Z,10.35
2023-03-24T05:18:05.672Z,10.23
2023-03-24T05:19:08.879Z,9.93
2023-03-24T05:20:11.609Z,9.27
2023-03-24T05:21:15.006Z,10.40
2023-03-24T05:22:18.279Z,9.23
2023-03-24T05:23:20.731Z,10.05
2023-03-24T05:24:24.008Z,10.18
2023-03-24T05:25:26.306Z,10.23
2023-03-24T05:26:31.298Z,9.50
2023-03-24T05:27:34.803Z,9.63
2023-03-24T05:28:37.766Z,9.38
2023-03-24T05:29:39.740Z,9.82
2023-03-24T05:30:44.073Z,9.52
2023-03-24T05:31:46.204Z,10.25
2023-03-24T05:32:49.304Z,9.80
2023-03-24T05:33:51.475Z,9.98
2023-03-24T05:34:54.577Z,9.95
2023-03-24T05:35:56.626Z,9.80
2023-03-24T05:36:59.645Z,10.20
2023-03-24T05:38:02.627Z,9.65
2023-03-24T05:39:04.672Z,9.85
2023-03-24T05:40:09.108Z,9.88
2023-03-24T05:41:11.264Z,10.70
2023-03-24T05:42:14.272Z,10.70
2023-03-24T05:43:16.333Z,9.63
2023-03-24T05:44:19.320Z,10.35
2023-03-24T05:45:21.289Z,9.82
2023-03-24T05:46:26.648Z,9.88
2023-03-24T05:47:28.753Z,9.45
2023-03-24T05:48:31.767Z,9.63
2023-03-24T05:49:34.141Z,9.55
2023-03-24T05:50:37.172Z,8.45
2023-03-24T05:51:39.152Z,9.73
2023-03-24T05:52:42.487Z,10.00
2023-03-24T05:53:44.466Z,10.25
2023-03-24T05:54:51.947Z,10.23
2023-03-24T05:55:53.896Z,10.48
2023-03-24T05:56:56.985Z,10.45
2023-03-24T05:58:02.039Z,10.95
2023-03-24T05:59:05.114Z,9.65
2023-03-24T06:00:10.587Z,10.88
2023-03-24T06:01:13.626Z,9.77
2023-03-24T06:02:17.005Z,10.73
2023-03-24T06:03:20.091Z,10.02
2023-03-24T06:04:22.511Z,9.88
2023-03-24T06:05:25.666Z,10.15
2023-03-24T06:06:28.732Z,10.30
2023-03-24T06:07:32.306Z,9.52
2023-03-24T06:08:34.472Z,9.88
2023-03-24T06:09:40.456Z,10.02
2023-03-24T06:10:43.142Z,9.30
2023-03-24T06:11:46.155Z,9.63
2023-03-24T06:12:48.151Z,9.10
2023-03-24T06:13:51.229Z,8.77
2023-03-24T06:14:53.254Z,8.88
2023-03-24T06:15:59.035Z,9.07
2023-03-24T06:17:02.407Z,8.82
2023-03-24T06:18:08.762Z,8.85
2023-03-24T06:19:10.832Z,8.35
2023-03-24T06:20:16.284Z,8.65
2023-03-24T06:21:18.748Z,7.88
2023-03-24T06:22:21.985Z,7.40
2023-03-24T06:23:25.820Z,7.78
2023-03-24T06:24:29.648Z,8.27
2023-03-24T06:25:33.623Z,7.70
2023-03-24T06:26:36.464Z,7.32
2023-03-24T06:27:46.082Z,7.30
2023-03-24T06:28:51.889Z,6.82
2023-03-24T06:29:53.933Z,6.97
2023-03-24T06:30:58.864Z,7.15
2023-03-24T06:32:01.216Z,6.90
2023-03-24T06:33:05.946Z,7.70
2023-03-24T06:34:11.891Z,7.03
2023-03-24T06:35:15.897Z,6.72
2023-03-24T06:36:18.455Z,7.43
2023-03-24T06:37:23.523Z,7.88
2023-03-24T06:38:26.273Z,7.60
2023-03-24T06:39:29.870Z,7.15
2023-03-24T06:40:32.338Z,7.20
2023-03-24T06:41:36.870Z,8.38
2023-03-24T06:42:39.182Z,8.20
2023-03-24T06:43:42.470Z,8.30
2023-03-24T06:44:44.789Z,8.05
2023-03-24T06:45:48.178Z,7.55
2023-03-24T06:46:50.704Z,6.50
2023-03-24T06:47:56.182Z,7.07
2023-03-24T06:48:58.502Z,7.15
2023-03-24T06:50:03.489Z,8.48
2023-03-24T06:51:07.249Z,7.60
2023-03-24T06:52:09.544Z,7.43
2023-03-24T06:53:12.874Z,7.43
2023-03-24T06:54:16.512Z,7.05
2023-03-24T06:55:19.905Z,6.53
2023-03-24T06:56:22.261Z,6.93
2023-03-24T06:57:26.063Z,6.72
2023-03-24T06:58:28.470Z,7.07
2023-03-24T06:59:31.921Z,6.93
2023-03-24T07:00:35.105Z,7.07
2023-03-24T07:01:39.693Z,7.85
2023-03-24T07:02:42.932Z,7.43
2023-03-24T07:03:46.450Z,7.50
2023-03-24T07:04:49.003Z,6.85
2023-03-24T07:05:53.870Z,7.38
2023-03-24T07:07:14.761Z,7.22
2023-03-24T07:08:36.713Z,6.75
2023-03-24T07:09:41.964Z,6.97
2023-03-24T07:10:44.587Z,6.80
2023-03-24T07:11:48.026Z,6.45
2023-03-24T07:12:50.497Z,7.13
2023-03-24T07:13:53.776Z,6.47
2023-03-24T07:14:56.148Z,6.78
2023-03-24T07:15:59.471Z,6.75
2023-03-24T07:17:02.797Z,6.95
2023-03-24T07:18:05.575Z,7.20
2023-03-24T07:19:08.916Z,6.75
2023-03-24T07:20:12.562Z,6.32
2023-03-24T07:21:18.298Z,6.45
2023-03-24T07:22:20.640Z,7.03
2023-03-24T07:23:25.432Z,6.57
2023-03-24T07:24:31.635Z,6.68
2023-03-24T07:25:35.166Z,7.22
2023-03-24T07:26:37.504Z,6.75
2023-03-24T07:27:42.439Z,6.90
2023-03-24T07:28:45.301Z,6.53
2023-03-24T07:29:48.615Z,6.50
2023-03-24T07:30:52.143Z,7.45
2023-03-24T07:31:58.903Z,6.40
2023-03-24T07:33:02.241Z,6.50
2023-03-24T07:34:05.694Z,6.07
2023-03-24T07:35:10.864Z,5.88
2023-03-24T07:36:14.245Z,5.60
2023-03-24T07:37:17.918Z,5.72
2023-03-24T07:38:21.227Z,5.72
2023-03-24T07:39:24.491Z,5.85
2023-03-24T07:40:26.874Z,5.10
2023-03-24T07:41:30.273Z,5.60
2023-03-24T07:42:32.646Z,5.45
2023-03-24T07:43:36.185Z,5.20
2023-03-24T07:44:38.519Z,4.95
2023-03-24T07:45:42.161Z,5.53
2023-03-24T07:46:44.517Z,5.57
2023-03-24T07:47:48.390Z,6.15
2023-03-24T07:48:50.825Z,5.25
2023-03-24T07:49:54.096Z,5.35
2023-03-24T07:50:56.430Z,4.97
2023-03-24T07:51:59.913Z,4.90
2023-03-24T07:53:03.779Z,4.93
2023-03-24T07:54:07.148Z,5.57
2023-03-24T07:55:11.930Z,5.22
2023-03-24T07:56:15.978Z,4.97
2023-03-24T07:57:18.386Z,4.60
2023-03-24T07:58:21.773Z,4.95
2023-03-24T07:59:25.892Z,4.72
2023-03-24T08:00:30.393Z,5.03
2023-03-24T08:01:32.944Z,4.65
2023-03-24T08:02:36.298Z,4.95
2023-03-24T08:03:40.850Z,4.93
2023-03-24T08:04:43.431Z,4.63
2023-03-24T08:05:47.317Z,4.90
2023-03-24T08:06:49.819Z,4.57
2023-03-24T08:07:54.369Z,4.32
2023-03-24T08:08:59.039Z,4.57
2023-03-24T08:10:01.359Z,4.40
2023-03-24T08:11:05.010Z,4.20
2023-03-24T08:12:19.318Z,4.68
2023-03-24T08:13:23.876Z,4.30
2023-03-24T08:14:27.207Z,4.43
2023-03-24T08:15:29.944Z,4.75
2023-03-24T08:16:33.303Z,4.40
2023-03-24T08:17:35.884Z,4.57
2023-03-24T08:18:39.196Z,5.25
2023-03-24T08:19:52.418Z,5.95
2023-03-24T08:21:02.705Z,5.53
2023-03-24T08:22:05.004Z,4.90
2023-03-24T08:23:08.496Z,5.35
2023-03-24T08:24:12.230Z,5.50
2023-03-24T08:25:15.551Z,5.43
2023-03-24T08:26:17.923Z,6.32
2023-03-24T08:27:21.505Z,6.25
2023-03-24T08:28:24.839Z,6.40
2023-03-24T08:29:28.160Z,6.30
2023-03-24T08:30:31.649Z,6.32
2023-03-24T08:31:34.454Z,5.93
2023-03-24T08:32:37.909Z,6.20
2023-03-24T08:33:41.690Z,6.32
2023-03-24T08:34:44.815Z,6.47
2023-03-24T08:35:48.315Z,6.53
2023-03-24T08:36:51.802Z,6.20
2023-03-24T08:37:54.188Z,6.88
2023-03-24T08:38:57.952Z,6.35
2023-03-24T08:40:04.112Z,7.30
2023-03-24T08:41:08.696Z,7.15
2023-03-24T08:42:11.253Z,7.43
2023-03-24T08:43:17.276Z,6.95
2023-03-24T08:44:19.858Z,7.10
2023-03-24T08:45:23.990Z,7.10
2023-03-24T08:46:26.410Z,7.15
2023-03-24T08:47:30.837Z,7.30
2023-03-24T08:48:34.911Z,7.97
2023-03-24T08:49:37.243Z,7.35
2023-03-24T08:50:41.964Z,7.75
2023-03-24T08:51:45.602Z,7.93
2023-03-24T08:52:48.217Z,7.25
2023-03-24T08:53:52.500Z,7.47
2023-03-24T08:54:54.813Z,7.70
2023-03-24T08:55:59.458Z,7.78
2023-03-24T08:57:01.759Z,7.85
2023-03-24T08:58:05.578Z,8.00
2023-03-24T08:59:09.083Z,6.88
2023-03-24T09:00:14.823Z,6.78
2023-03-24T09:01:18.360Z,8.02
2023-03-24T09:02:20.681Z,7.65
2023-03-24T09:03:24.150Z,7.75
2023-03-24T09:04:26.553Z,7.60
2023-03-24T09:05:43.232Z,7.65
2023-03-24T09:06:47.942Z,7.32
2023-03-24T09:07:51.639Z,8.35
2023-03-24T09:08:54.982Z,7.80
2023-03-24T09:09:57.295Z,8.07
2023-03-24T09:11:01.938Z,7.80
2023-03-24T09:12:04.407Z,8.80
2023-03-24T09:13:07.744Z,9.07
2023-03-24T09:14:11.103Z,8.98
2023-03-24T09:15:14.333Z,7.97
2023-03-24T09:16:18.226Z,8.45
2023-03-24T09:17:20.705Z,8.77
2023-03-24T09:18:24.109Z,8.30
2023-03-24T09:19:26.503Z,8.45
2023-03-24T09:20:29.975Z,9.20
2023-03-24T09:21:33.266Z,9.60
2023-03-24T09:22:38.124Z,8.13
2023-03-24T09:23:41.462Z,8.90
2023-03-24T09:24:44.509Z,9.68
2023-03-24T09:25:48.034Z,9.32
2023-03-24T09:26:51.835Z,8.10
2023-03-24T09:27:56.541Z,8.57
2023-03-24T09:28:59.818Z,9.20
2023-03-24T09:30:02.373Z,8.70
2023-03-24T09:31:07.310Z,7.80
2023-03-24T09:32:09.673Z,8.25
2023-03-24T09:33:12.974Z,8.65
2023-03-24T09:34:16.464Z,7.88
2023-03-24T09:35:18.900Z,8.18
2023-03-24T09:36:22.301Z,8.10
2023-03-24T09:37:25.132Z,7.65
2023-03-24T09:38:28.551Z,7.63
2023-03-24T09:39:32.361Z,7.32
2023-03-24T09:40:38.305Z,6.88
2023-03-24T09:41:42.275Z,6.95
2023-03-24T09:42:47.578Z,7.03
2023-03-24T09:43:53.134Z,7.10
2023-03-24T09:44:57.235Z,6.78
2023-03-24T09:46:00.530Z,7.10
2023-03-24T09:47:06.017Z,7.40
2023-03-24T09:48:09.964Z,6.63
2023-03-24T09:49:16.495Z,6.82
2023-03-24T09:50:23.171Z,6.50
2023-03-24T09:51:27.977Z,6.43
2023-03-24T09:52:32.994Z,5.70
2023-03-24T09:53:38.301Z,6.00
2023-03-24T09:54:42.923Z,5.45
2023-03-24T09:55:47.093Z,5.63
2023-03-24T09:56:51.939Z,5.03
2023-03-24T09:57:57.911Z,5.60
2023-03-24T09:59:06.244Z,5.57
2023-03-24T10:00:28.029Z,5.65
2023-03-24T10:01:30.829Z,5.40
2023-03-24T10:02:34.230Z,5.50
2023-03-24T10:03:36.677Z,5.80
2023-03-24T10:04:40.064Z,5.60
2023-03-24T10:05:46.001Z,6.05
2023-03-24T10:06:53.255Z,6.20
2023-03-24T10:07:58.204Z,5.72
2023-03-24T10:09:09.137Z,6.35
2023-03-24T10:10:20.061Z,5.70
2023-03-24T10:11:26.174Z,5.55
2023-03-24T10:12:33.509Z,6.38
2023-03-24T10:13:45.606Z,5.93
2023-03-24T10:14:53.964Z,5.40
2023-03-24T10:16:02.361Z,6.13
2023-03-24T10:17:10.598Z,5.57
2023-03-24T10:18:21.746Z,6.20
2023-03-24T10:19:40.373Z,6.40
2023-03-24T10:20:47.700Z,6.60
2023-03-24T10:21:53.828Z,6.53
2023-03-24T10:23:02.047Z,6.18
2023-03-24T10:24:08.846Z,6.82
2023-03-24T10:25:15.681Z,6.80
2023-03-24T10:26:25.960Z,7.10
2023-03-24T10:27:32.802Z,7.03
2023-03-24T10:28:39.962Z,7.70
2023-03-24T10:29:46.621Z,7.32
2023-03-24T10:30:51.110Z,7.15
2023-03-24T10:31:56.172Z,7.25
2023-03-24T10:32:59.667Z,7.18
2023-03-24T10:34:03.285Z,7.50
2023-03-24T10:35:10.025Z,7.03
2023-03-24T10:36:15.117Z,6.88
2023-03-24T10:37:17.638Z,7.25
2023-03-24T10:38:21.836Z,7.70
2023-03-24T10:39:28.624Z,7.15
2023-03-24T10:40:42.472Z,7.47
2023-03-24T10:41:46.359Z,7.60
2023-03-24T10:43:07.406Z,7.93
2023-03-24T10:44:14.051Z,7.88
2023-03-24T10:45:21.902Z,6.65
2023-03-24T10:46:25.447Z,7.22
2023-03-24T10:47:32.495Z,7.28
2023-03-24T10:48:37.251Z,7.68
2023-03-24T10:49:40.714Z,7.25
2023-03-24T10:50:44.826Z,7.00
2023-03-24T10:51:49.618Z,7.45
2023-03-24T10:52:53.420Z,7.50
2023-03-24T10:54:12.178Z,7.00
2023-03-24T10:55:16.618Z,6.88
2023-03-24T10:56:21.413Z,6.28
2023-03-24T10:57:24.729Z,6.13
2023-03-24T10:58:31.614Z,6.27
2023-03-24T10:59:37.454Z,6.03
2023-03-24T11:00:42.756Z,5.88
2023-03-24T11:01:46.261Z,6.65
2023-03-24T11:02:56.249Z,6.05
2023-03-24T11:04:00.865Z,5.67
2023-03-24T11:05:05.821Z,5.38
2023-03-24T11:06:08.324Z,6.33
2023-03-24T11:07:16.100Z,5.60
2023-03-24T11:08:28.579Z,6.03
2023-03-24T11:09:33.331Z,5.93
2023-03-24T11:10:35.643Z,5.93
2023-03-24T11:11:38.928Z,5.60
2023-03-24T11:12:42.971Z,5.37
2023-03-24T11:13:55.249Z,5.97
2023-03-24T11:15:23.537Z,5.20
2023-03-24T11:16:33.307Z,5.57
2023-03-24T11:17:35.872Z,5.20
2023-03-24T11:18:39.372Z,5.20
2023-03-24T11:19:51.236Z,5.57
2023-03-24T11:20:56.864Z,4.90
2023-03-24T11:22:04.213Z,5.10
2023-03-24T11:23:10.688Z,4.80
2023-03-24T11:24:15.684Z,5.13
2023-03-24T11:25:18.365Z,5.13
2023-03-24T11:26:23.262Z,5.17
2023-03-24T11:27:27.270Z,5.47
2023-03-24T11:28:29.806Z,5.00
2023-03-24T11:29:34.394Z,4.97
2023-03-24T11:30:46.356Z,5.10
2023-03-24T11:31:56.442Z,4.47
2023-03-24T11:32:59.144Z,4.50
2023-03-24T11:34:04.354Z,4.60
2023-03-24T11:35:09.213Z,4.33
2023-03-24T11:36:27.458Z,4.47
2023-03-24T11:37:33.362Z,4.23
2023-03-24T11:38:36.226Z,4.17
2023-03-24T11:39:39.525Z,5.33
2023-03-24T11:40:53.275Z,4.37
2023-03-24T11:42:04.758Z,4.30
2023-03-24T11:43:08.273Z,4.37
2023-03-24T11:44:18.375Z,4.23
2023-03-24T11:45:23.094Z,4.27
2023-03-24T11:46:26.591Z,4.30
2023-03-24T11:47:32.743Z,4.20
2023-03-24T11:48:41.663Z,4.13
2023-03-24T11:49:47.509Z,4.10
2023-03-24T11:50:50.056Z,3.77
2023-03-24T11:51:55.400Z,3.77
2023-03-24T11:53:01.679Z,4.00
2023-03-24T11:54:06.976Z,4.10
2023-03-24T11:55:16.556Z,4.40
2023-03-24T11:56:24.516Z,3.90
2023-03-24T11:57:41.025Z,3.90
2023-03-24T11:58:46.916Z,3.60
2023-03-24T11:59:51.441Z,3.60
2023-03-24T12:00:57.245Z,3.70
2023-03-24T12:02:03.232Z,3.17
2023-03-24T12:03:15.190Z,2.97
2023-03-24T12:04:29.046Z,2.80
2023-03-24T12:05:34.296Z,3.10
2023-03-24T12:06:43.455Z,2.97
2023-03-24T12:08:04.082Z,3.40
2023-03-24T12:09:12.056Z,3.43
2023-03-24T12:10:20.686Z,2.83
2023-03-24T12:11:27.312Z,3.00
2023-03-24T12:12:34.569Z,3.20
2023-03-24T12:13:38.547Z,3.03
2023-03-24T12:14:48.509Z,3.17
2023-03-24T12:15:57.144Z,3.33
2023-03-24T12:17:05.309Z,2.80
2023-03-24T12:18:19.285Z,2.80
2023-03-24T12:19:40.882Z,3.23
2023-03-24T12:20:48.963Z,3.47
2023-03-24T12:21:59.681Z,3.50
2023-03-24T12:23:06.525Z,2.93
2023-03-24T12:24:13.360Z,2.90
2023-03-24T12:25:22.363Z,3.27
2023-03-24T12:26:27.143Z,3.10
2023-03-24T12:27:35.540Z,2.87
2023-03-24T12:28:44.953Z,3.13
2023-03-24T12:29:54.678Z,3.30
2023-03-24T12:31:02.384Z,3.20
2023-03-24T12:32:12.783Z,2.97
2023-03-24T12:33:24.068Z,3.03
2023-03-24T12:34:34.429Z,3.43
2023-03-24T12:35:46.332Z,3.30
2023-03-24T12:36:55.452Z,3.17
2023-03-24T12:38:05.841Z,3.13
2023-03-24T12:39:10.184Z,3.27
2023-03-24T12:40:24.685Z,3.10
2023-03-24T12:41:36.583Z,3.10
2023-03-24T12:42:40.992Z,3.47
2023-03-24T12:43:48.820Z,2.93
2023-03-24T12:45:10.048Z,2.80
2023-03-24T12:46:19.416Z,2.77
2023-03-24T12:47:30.349Z,2.88
2023-03-24T12:48:51.603Z,3.03
2023-03-24T12:50:00.463Z,3.13
2023-03-24T12:51:09.418Z,3.23
2023-03-24T12:52:19.037Z,3.10
2023-03-24T12:53:39.753Z,2.87
2023-03-24T12:54:46.064Z,3.50
2023-03-24T12:55:51.890Z,3.20
2023-03-24T12:56:55.778Z,3.27
2023-03-24T12:58:02.496Z,3.70
2023-03-24T12:59:08.486Z,3.60
2023-03-24T13:00:16.154Z,3.90
2023-03-24T13:01:21.480Z,3.90
2023-03-24T13:02:27.111Z,3.50
2023-03-24T13:03:31.652Z,3.90
2023-03-24T13:04:37.904Z,3.77
2023-03-24T13:05:48.022Z,3.77
2023-03-24T13:06:54.721Z,3.63
2023-03-24T13:07:58.610Z,3.70
2023-03-24T13:09:08.114Z,4.30
2023-03-24T13:10:15.919Z,3.67
2023-03-24T13:11:32.260Z,3.45
2023-03-24T13:12:40.414Z,3.43
2023-03-24T13:13:45.100Z,3.40
2023-03-24T13:14:51.693Z,3.50
2023-03-24T13:15:56.762Z,3.07
2023-03-24T13:17:05.522Z,3.23
2023-03-24T13:18:17.144Z,3.40
2023-03-24T13:19:22.709Z,3.20
2023-03-24T13:20:27.958Z,4.00
2023-03-24T13:21:35.356Z,3.17
2023-03-24T13:22:39.440Z,3.63
2023-03-24T13:23:44.586Z,3.83
2023-03-24T13:24:48.438Z,3.63
2023-03-24T13:25:54.231Z,4.23
2023-03-24T13:27:01.690Z,3.60
2023-03-24T13:28:09.499Z,3.95
2023-03-24T13:29:15.874Z,3.80
2023-03-24T13:30:31.415Z,4.10
2023-03-24T13:31:37.262Z,3.90
2023-03-24T13:32:43.507Z,4.18
2023-03-24T13:33:47.214Z,3.78
2023-03-24T13:34:53.334Z,3.78
2023-03-24T13:36:02.136Z,3.55
2023-03-24T13:37:06.528Z,3.97
2023-03-24T13:38:16.526Z,4.07
2023-03-24T13:39:21.324Z,3.90
2023-03-24T13:40:25.835Z,4.45
2023-03-24T13:41:34.462Z,3.70
2023-03-24T13:42:38.826Z,3.20
2023-03-24T13:43:48.551Z,4.07
2023-03-24T13:44:50.846Z,3.63
2023-03-24T13:46:00.251Z,3.38
2023-03-24T13:47:08.095Z,3.43
2023-03-24T13:48:19.921Z,8.80
2023-03-24T13:49:23.220Z,3.33
2023-03-24T13:50:27.115Z,3.10
2023-03-24T13:51:32.098Z,3.85
2023-03-24T13:52:37.371Z,4.35
2023-03-24T13:53:41.674Z,3.35
2023-03-24T13:54:45.755Z,3.63
2023-03-24T13:55:50.608Z,3.45
2023-03-24T13:56:55.101Z,3.30
2023-03-24T13:57:59.863Z,3.22
2023-03-24T13:59:11.480Z,3.20
2023-03-24T14:00:20.369Z,3.05
2023-03-24T14:01:33.215Z,3.05
2023-03-24T14:02:46.430Z,3.30
2023-03-24T14:04:09.911Z,3.35
2023-03-24T14:05:12.633Z,2.65
2023-03-24T14:06:17.859Z,2.97
2023-03-24T14:07:31.657Z,3.17
2023-03-24T14:08:56.003Z,3.47
2023-03-24T14:09:59.084Z,2.72
2023-03-24T14:11:02.358Z,2.67
2023-03-24T14:12:27.136Z,2.47
2023-03-24T14:13:36.755Z,2.40
2023-03-24T14:15:05.709Z,2.45
2023-03-24T14:16:27.788Z,2.10
2023-03-24T14:17:30.323Z,2.33
2023-03-24T14:18:43.614Z,2.38
2023-03-24T14:20:10.649Z,3.13
2023-03-24T14:21:12.980Z,2.70
2023-03-24T14:22:16.920Z,2.47
2023-03-24T14:23:22.827Z,2.47
2023-03-24T14:24:29.821Z,2.60
2023-03-24T14:25:33.235Z,2.85
2023-03-24T14:26:36.505Z,2.92
2023-03-24T14:27:42.440Z,4.07
2023-03-24T14:28:46.779Z,2.28
2023-03-24T14:29:50.673Z,3.53
2023-03-24T14:31:02.112Z,6.20
2023-03-24T14:32:16.991Z,2.47